FEZ weather

Saïss Airport
Fes, Fès Province, Morocco

Public forecast

Using degrees Celsius for public forecast. Weather courtesy of forecast.io.

METAR (pilot weather report)

Retrieved 2019/05/27 00:30 UTC (0 seconds ago):

GMFF 270030Z 16007KT CAVOK 15/03 Q1015 NOSIG

TAF (pilot weather forecast)

Forecast is more than 12 hours old.

Retrieved 2019/05/26 00:15 UTC (1 day ago):

TAF TAF GMFF 262300Z 2700/2806 16006KT CAVOK